Flight Track Log - Related Links

Times and Time Zones

All times are in EDT time to prevent confusion due to time zone crossing. See the SWA557 flight status page for this flight to view local times or setup timezone preferences in your user account.

Time Position Orientation Groundspeed Altitude Reporting Facility
EDT Latitude Longitude Course Direction KTS MPH feet Rate Location/Type
Fri 09:55:36 AM 36.1000 -86.6833 180° South 157 181 1,400  Level Nashville TRACON
Fri 09:56:42 AM 36.0500 -86.6833 169° South 197 227 3,900 2,409 Climbing Nashville TRACON
Fri 09:57:48 AM 35.9833 -86.6667 158° South 237 273 6,700 2,600 Climbing Nashville TRACON
Fri 09:58:12 AM 35.9489 -86.6494 155° Southeast 254 292 7,800 2,824 Climbing Memphis Center
Fri 09:59:13 AM 35.8789 -86.6089 155° Southeast 270 311 10,700 2,350 Climbing Memphis Center
Fri 10:00:12 AM 35.8003 -86.5639 156° South 297 342 12,500 2,118 Climbing Memphis Center
Fri 10:01:12 AM 35.7153 -86.5167 153° Southeast 325 374 14,900 2,250 Climbing Memphis Center
Fri 10:02:12 AM 35.6281 -86.4619 141° Southeast 339 390 17,000 1,750 Climbing Memphis Center
Fri 10:03:12 AM 35.5592 -86.3939 138° Southeast 352 405 18,400 1,650 Climbing Memphis Center
Fri 10:04:12 AM 35.4792 -86.3058 139° Southeast 377 434 20,300 2,053 Climbing Memphis Center
Fri 10:04:28 AM 35.4497 -86.2744 139° Southeast 378 435 21,000 1,737 Climbing Atlanta Center
Fri 10:05:28 AM 35.3678 -86.1858 140° Southeast 404 465 22,500 1,700 Climbing Atlanta Center
Fri 10:06:28 AM 35.2797 -86.0969 148° Southeast 404 465 24,400 1,500 Climbing Atlanta Center
Fri 10:07:28 AM 35.1850 -86.0236 153° Southeast 404 465 25,500 1,050 Climbing Atlanta Center
Fri 10:08:28 AM 35.0897 -85.9653 154° Southeast 410 472 26,500 1,050 Climbing Atlanta Center
Fri 10:09:28 AM 34.9781 -85.8994 151° Southeast 428 493 27,600 1,150 Climbing Atlanta Center
Fri 10:10:28 AM 34.8728 -85.8286 156° South 434 499 28,800 1,250 Climbing Atlanta Center
Fri 10:11:28 AM 34.7589 -85.7656 152° Southeast 448 516 30,100 1,250 Climbing Atlanta Center
Fri 10:12:28 AM 34.6472 -85.6925 151° Southeast 448 516 31,300 1,100 Climbing Atlanta Center
Fri 10:13:28 AM 34.5375 -85.6172 152° Southeast 448 516 32,300 900 Climbing Atlanta Center
Fri 10:14:28 AM 34.4278 -85.5472 152° Southeast 448 516 33,100 900 Climbing Atlanta Center
Fri 10:15:28 AM 34.3097 -85.4697 152° Southeast 442 509 34,100 950 Climbing Atlanta Center
Fri 10:16:28 AM 34.2000 -85.4000 152° Southeast 442 509 35,000 450 Climbing Atlanta Center
Fri 10:17:28 AM 34.0922 -85.3306 152° Southeast 442 509 35,000  Level Atlanta Center
Fri 10:18:28 AM 33.9803 -85.2589 153° Southeast 448 516 35,000  Level Atlanta Center
Fri 10:19:28 AM 33.8683 -85.1897 151° Southeast 448 516 35,000  Level Atlanta Center
Fri 10:20:28 AM 33.7561 -85.1156 153° Southeast 448 516 35,000  Level Atlanta Center
Fri 10:21:28 AM 33.6419 -85.0444 152° Southeast 453 521 35,000  Level Atlanta Center
Fri 10:22:28 AM 33.5256 -84.9708 152° Southeast 460 529 35,000  Level Atlanta Center
Fri 10:23:28 AM 33.4156 -84.9000 152° Southeast 460 529 35,000  Level Atlanta Center
Fri 10:24:28 AM 33.3011 -84.8267 152° Southeast 460 529 35,000  Level Atlanta Center
Fri 10:25:28 AM 33.1972 -84.7611 154° Southeast 460 529 35,000  Level Atlanta Center
Fri 10:26:28 AM 33.0828 -84.6933 151° Southeast 460 529 35,000  Level Atlanta Center
Fri 10:27:28 AM 32.9683 -84.6181 153° Southeast 466 536 35,000  Level Atlanta Center
Fri 10:28:28 AM 32.8539 -84.5483 152° Southeast 461 531 35,000  Level Atlanta Center
Fri 10:29:28 AM 32.7289 -84.4683 153° Southeast 467 537 35,000  Level Atlanta Center
Fri 10:30:28 AM 32.6164 -84.3989 152° Southeast 467 537 35,000  Level Atlanta Center
Fri 10:31:28 AM 32.5019 -84.3269 152° Southeast 467 537 35,000  Level Atlanta Center
Fri 10:32:28 AM 32.3872 -84.2553 152° Southeast 467 537 35,000  Level Atlanta Center
Fri 10:33:28 AM 32.2706 -84.1814 153° Southeast 467 537 35,000  Level Atlanta Center
Fri 10:34:28 AM 32.1556 -84.1125 152° Southeast 467 537 35,000  Level Atlanta Center
Fri 10:35:28 AM 32.0408 -84.0414 151° Southeast 467 537 35,000  Level Atlanta Center
Fri 10:37:51 AM 31.7703 -83.8653 146° Southeast 482 555 35,000  Level Jacksonville Center
Fri 10:38:51 AM 31.6622 -83.7786 148° Southeast 476 548 35,000  Level Jacksonville Center
Fri 10:39:50 AM 31.5564 -83.6997 145° Southeast 488 562 35,000  Level Jacksonville Center
Fri 10:40:50 AM 31.4506 -83.6133 145° Southeast 488 562 35,000  Level Jacksonville Center
Fri 10:41:51 AM 31.3422 -83.5250 146° Southeast 478 550 35,000  Level Jacksonville Center
Fri 10:42:51 AM 31.2342 -83.4392 146° Southeast 478 550 35,000  Level Jacksonville Center
Fri 10:43:51 AM 31.1258 -83.3536 146° Southeast 478 550 35,000  Level Jacksonville Center
Fri 10:44:51 AM 31.0156 -83.2658 147° Southeast 478 550 35,000  Level Jacksonville Center
Fri 10:45:51 AM 30.9050 -83.1808 145° Southeast 478 550 35,000 -1,250 Level Jacksonville Center
Fri 10:46:51 AM 30.7906 -83.0861 147° Southeast 478 550 32,500 -4,034 Descending Jacksonville Center
Fri 10:47:50 AM 30.6800 -83.0014 147° Southeast 473 544 27,000 -2,874 Descending Jacksonville Center
Fri 10:48:50 AM 30.5714 -82.9192 145° Southeast 473 544 26,800 -500 Descending Jacksonville Center
Fri 10:49:50 AM 30.4628 -82.8322 147° Southeast 473 544 26,000 -900 Descending Jacksonville Center
Fri 10:50:50 AM 30.3500 -82.7458 146° Southeast 478 550 25,000 -500 Descending Jacksonville Center
Fri 10:51:50 AM 30.2433 -82.6617 147° Southeast 478 550 25,000  Level Jacksonville Center
Fri 10:52:50 AM 30.1325 -82.5781 147° Southeast 478 550 25,000  Level Jacksonville Center
Fri 10:53:50 AM 30.0258 -82.4967 152° Southeast 473 544 25,000  Level Jacksonville Center
Fri 10:54:50 AM 29.9086 -82.4253 155° Southeast 473 544 25,000 -150 Level Jacksonville Center
Fri 10:55:50 AM 29.8019 -82.3683 157° South 473 544 24,700 -750 Descending Jacksonville Center
Fri 10:56:50 AM 29.6847 -82.3117 158° South 468 539 23,500 -1,100 Descending Jacksonville Center
Fri 10:57:50 AM 29.5675 -82.2575 158° South 457 526 22,500 -950 Descending Jacksonville Center
Fri 10:58:50 AM 29.4547 -82.2058 157° South 452 520 21,600 -1,000 Descending Jacksonville Center
Fri 10:59:50 AM 29.3394 -82.1494 158° South 452 520 20,500 -1,900 Descending Jacksonville Center
Fri 11:00:50 AM 29.2306 -82.0978 157° South 445 512 17,800 -2,800 Descending Jacksonville Center
Fri 11:01:50 AM 29.1217 -82.0439 158° South 438 504 14,900 -2,800 Descending Jacksonville Center
Fri 11:02:50 AM 29.0150 -81.9950 157° South 426 490 12,200 -1,800 Descending Jacksonville Center
Fri 11:03:50 AM 28.9208 -81.9483 139° Southeast 400 460 11,300 -750 Descending Jacksonville Center
Fri 11:04:50 AM 28.8597 -81.8875 110° East 331 381 10,700 -1,000 Descending Jacksonville Center
Fri 11:05:50 AM 28.8319 -81.8000 105° East 291 335 9,300 -962 Descending Jacksonville Center
Fri 11:06:36 AM 28.8167 -81.7333 103° East 283 326 9,000 -170 Descending Orlando TRACON
Fri 11:07:36 AM 28.8000 -81.6500 120° Southeast 250 288 9,000 -300 Level Orlando TRACON
Fri 11:08:36 AM 28.7667 -81.5833 103° East 237 273 8,400 -843 Descending Orlando TRACON
Fri 11:09:37 AM 28.7500 -81.5000 127° Southeast 232 267 7,300 -1,140 Descending Orlando TRACON
Fri 11:10:37 AM 28.7167 -81.4500 120° Southeast 230 265 6,100 -1,190 Descending Orlando TRACON
Fri 11:11:43 AM 28.6833 -81.3833 139° Southeast 224 258 4,800 -1,190 Descending Orlando TRACON
Fri 11:12:43 AM 28.6333 -81.3333 139° Southeast 225 259 3,600 -1,095 Descending Orlando TRACON
Fri 11:13:49 AM 28.5833 -81.2833 180° South 222 255 2,500 -905 Descending Orlando TRACON
Fri 11:14:49 AM 28.5167 -81.2833 180° South 204 235 1,700 -850 Descending Orlando TRACON
Fri 11:15:49 AM 28.4833 -81.2833 192° South 147 169 800 -900 Descending Orlando TRACON
Fri 11:23:00 AM 28.4167 -81.3000 328° Northwest  Level FlightAware Approximate
Fri 11:24:00 AM 28.5119 -81.3674 148° Southeast  Level Estimated
Fri 11:25:00 AM 28.4167 -81.3000 328° Northwest  Level FlightAware Approximate
Fri 11:26:00 AM 28.5119 -81.3674 328° Northwest  Level Estimated

Login

Don't have an account? Register now (free) for customized features, flight alerts, and more!